sensor_id;sensor_type;location;lat;lon;timestamp;pressure;altitude;pressure_sealevel;temperature
15680;BMP180;15488;48.114;11.532;2023-04-09T00:00:26;95919.00;;;14.60
15680;BMP180;15488;48.114;11.532;2023-04-09T00:02:54;95922.00;;;14.50
15680;BMP180;15488;48.114;11.532;2023-04-09T00:05:23;95920.00;;;14.50
15680;BMP180;15488;48.114;11.532;2023-04-09T00:07:51;95923.00;;;14.50
15680;BMP180;15488;48.114;11.532;2023-04-09T00:10:18;95922.00;;;14.50
15680;BMP180;15488;48.114;11.532;2023-04-09T00:12:46;95916.00;;;14.50
15680;BMP180;15488;48.114;11.532;2023-04-09T00:15:13;95912.00;;;14.50
15680;BMP180;15488;48.114;11.532;2023-04-09T00:17:40;95914.00;;;14.50
15680;BMP180;15488;48.114;11.532;2023-04-09T00:20:09;95909.00;;;14.50
15680;BMP180;15488;48.114;11.532;2023-04-09T00:22:37;95912.00;;;14.50
15680;BMP180;15488;48.114;11.532;2023-04-09T00:25:06;95906.00;;;14.40
15680;BMP180;15488;48.114;11.532;2023-04-09T00:27:34;95910.00;;;14.40
15680;BMP180;15488;48.114;11.532;2023-04-09T00:30:01;95906.00;;;14.40
15680;BMP180;15488;48.114;11.532;2023-04-09T00:32:29;95905.00;;;14.40
15680;BMP180;15488;48.114;11.532;2023-04-09T00:34:56;95905.00;;;14.30
15680;BMP180;15488;48.114;11.532;2023-04-09T00:37:24;95906.00;;;14.30
15680;BMP180;15488;48.114;11.532;2023-04-09T00:39:52;95905.00;;;14.30
15680;BMP180;15488;48.114;11.532;2023-04-09T00:42:20;95905.00;;;14.30
15680;BMP180;15488;48.114;11.532;2023-04-09T00:44:48;95904.00;;;14.30
15680;BMP180;15488;48.114;11.532;2023-04-09T00:47:15;95901.00;;;14.30
15680;BMP180;15488;48.114;11.532;2023-04-09T00:49:43;95899.00;;;14.30
15680;BMP180;15488;48.114;11.532;2023-04-09T00:52:11;95904.00;;;14.30
15680;BMP180;15488;48.114;11.532;2023-04-09T00:54:38;95906.00;;;14.40
15680;BMP180;15488;48.114;11.532;2023-04-09T00:57:07;95901.00;;;14.30
15680;BMP180;15488;48.114;11.532;2023-04-09T00:59:36;95902.00;;;14.30
15680;BMP180;15488;48.114;11.532;2023-04-09T01:02:04;95902.00;;;14.40
15680;BMP180;15488;48.114;11.532;2023-04-09T01:04:31;95906.00;;;14.30
15680;BMP180;15488;48.114;11.532;2023-04-09T01:07:04;95905.00;;;14.30
15680;BMP180;15488;48.114;11.532;2023-04-09T01:09:38;95903.00;;;14.30
15680;BMP180;15488;48.114;11.532;2023-04-09T01:12:16;95902.00;;;14.30
15680;BMP180;15488;48.114;11.532;2023-04-09T01:14:51;95905.00;;;14.30
15680;BMP180;15488;48.114;11.532;2023-04-09T01:17:23;95901.00;;;14.30
15680;BMP180;15488;48.114;11.532;2023-04-09T01:19:57;95897.00;;;14.30
15680;BMP180;15488;48.114;11.532;2023-04-09T01:22:35;95907.00;;;14.30
15680;BMP180;15488;48.114;11.532;2023-04-09T01:25:15;95895.00;;;14.30
15680;BMP180;15488;48.114;11.532;2023-04-09T01:28:12;95894.00;;;14.30
15680;BMP180;15488;48.114;11.532;2023-04-09T01:30:43;95901.00;;;14.30
15680;BMP180;15488;48.114;11.532;2023-04-09T01:33:13;95897.00;;;14.30
15680;BMP180;15488;48.114;11.532;2023-04-09T01:35:42;95908.00;;;14.30
15680;BMP180;15488;48.114;11.532;2023-04-09T01:38:11;95902.00;;;14.30
15680;BMP180;15488;48.114;11.532;2023-04-09T01:40:40;95897.00;;;14.30
15680;BMP180;15488;48.114;11.532;2023-04-09T01:43:08;95904.00;;;14.40
15680;BMP180;15488;48.114;11.532;2023-04-09T01:45:38;95904.00;;;14.30
15680;BMP180;15488;48.114;11.532;2023-04-09T01:48:06;95899.00;;;14.40
15680;BMP180;15488;48.114;11.532;2023-04-09T01:50:35;95901.00;;;14.30
15680;BMP180;15488;48.114;11.532;2023-04-09T01:53:02;95902.00;;;14.30
15680;BMP180;15488;48.114;11.532;2023-04-09T01:55:30;95902.00;;;14.30
15680;BMP180;15488;48.114;11.532;2023-04-09T01:57:57;95900.00;;;14.40
15680;BMP180;15488;48.114;11.532;2023-04-09T02:00:30;95901.00;;;14.40
15680;BMP180;15488;48.114;11.532;2023-04-09T02:03:05;95906.00;;;14.40
15680;BMP180;15488;48.114;11.532;2023-04-09T02:05:40;95905.00;;;14.40
15680;BMP180;15488;48.114;11.532;2023-04-09T02:08:11;95905.00;;;14.40
15680;BMP180;15488;48.114;11.532;2023-04-09T02:10:44;95899.00;;;14.40
15680;BMP180;15488;48.114;11.532;2023-04-09T02:13:18;95935.00;;;14.40
15680;BMP180;15488;48.114;11.532;2023-04-09T02:15:47;95893.00;;;14.30
15680;BMP180;15488;48.114;11.532;2023-04-09T02:18:23;95906.00;;;14.30
15680;BMP180;15488;48.114;11.532;2023-04-09T02:20:52;95895.00;;;14.40
15680;BMP180;15488;48.114;11.532;2023-04-09T02:23:20;95899.00;;;14.40
15680;BMP180;15488;48.114;11.532;2023-04-09T02:25:48;95897.00;;;14.40
15680;BMP180;15488;48.114;11.532;2023-04-09T02:28:15;95899.00;;;14.40
15680;BMP180;15488;48.114;11.532;2023-04-09T02:30:43;95892.00;;;14.40
15680;BMP180;15488;48.114;11.532;2023-04-09T02:33:10;95897.00;;;14.40
15680;BMP180;15488;48.114;11.532;2023-04-09T02:35:39;95972.00;;;14.10
15680;BMP180;15488;48.114;11.532;2023-04-09T02:38:08;95892.00;;;14.30
15680;BMP180;15488;48.114;11.532;2023-04-09T02:40:38;95897.00;;;14.40
15680;BMP180;15488;48.114;11.532;2023-04-09T02:43:06;95898.00;;;14.40
15680;BMP180;15488;48.114;11.532;2023-04-09T02:45:34;95898.00;;;14.40
15680;BMP180;15488;48.114;11.532;2023-04-09T02:48:01;95902.00;;;14.40
15680;BMP180;15488;48.114;11.532;2023-04-09T02:50:29;95899.00;;;14.40
15680;BMP180;15488;48.114;11.532;2023-04-09T02:52:58;95893.00;;;14.40
15680;BMP180;15488;48.114;11.532;2023-04-09T02:55:25;95894.00;;;14.40
15680;BMP180;15488;48.114;11.532;2023-04-09T02:57:53;95890.00;;;14.40
15680;BMP180;15488;48.114;11.532;2023-04-09T03:00:20;95893.00;;;14.40
15680;BMP180;15488;48.114;11.532;2023-04-09T03:02:47;95879.00;;;14.40
15680;BMP180;15488;48.114;11.532;2023-04-09T03:05:15;95878.00;;;14.40
15680;BMP180;15488;48.114;11.532;2023-04-09T03:07:42;95878.00;;;14.40
15680;BMP180;15488;48.114;11.532;2023-04-09T03:10:11;95875.00;;;14.30
15680;BMP180;15488;48.114;11.532;2023-04-09T03:12:39;95883.00;;;14.40
15680;BMP180;15488;48.114;11.532;2023-04-09T03:15:09;95876.00;;;14.30
15680;BMP180;15488;48.114;11.532;2023-04-09T03:17:37;95876.00;;;14.30
15680;BMP180;15488;48.114;11.532;2023-04-09T03:20:06;95874.00;;;14.40
15680;BMP180;15488;48.114;11.532;2023-04-09T03:22:35;95873.00;;;14.40
15680;BMP180;15488;48.114;11.532;2023-04-09T03:25:04;95873.00;;;14.40
15680;BMP180;15488;48.114;11.532;2023-04-09T03:27:33;95871.00;;;14.30
15680;BMP180;15488;48.114;11.532;2023-04-09T03:30:00;95871.00;;;14.40
15680;BMP180;15488;48.114;11.532;2023-04-09T03:32:28;95868.00;;;14.40
15680;BMP180;15488;48.114;11.532;2023-04-09T03:34:55;95868.00;;;14.40
15680;BMP180;15488;48.114;11.532;2023-04-09T03:37:23;95875.00;;;14.40
15680;BMP180;15488;48.114;11.532;2023-04-09T03:39:50;95881.00;;;14.40
15680;BMP180;15488;48.114;11.532;2023-04-09T03:42:18;95869.00;;;14.40
15680;BMP180;15488;48.114;11.532;2023-04-09T03:44:46;95883.00;;;14.40
15680;BMP180;15488;48.114;11.532;2023-04-09T03:47:14;95892.00;;;14.40
15680;BMP180;15488;48.114;11.532;2023-04-09T03:49:41;95886.00;;;14.40
15680;BMP180;15488;48.114;11.532;2023-04-09T03:52:09;95895.00;;;14.40
15680;BMP180;15488;48.114;11.532;2023-04-09T03:54:36;95896.00;;;14.30
15680;BMP180;15488;48.114;11.532;2023-04-09T03:57:04;95908.00;;;14.30
15680;BMP180;15488;48.114;11.532;2023-04-09T03:59:31;95899.00;;;14.30
15680;BMP180;15488;48.114;11.532;2023-04-09T04:02:00;95897.00;;;14.30
15680;BMP180;15488;48.114;11.532;2023-04-09T04:04:27;95889.00;;;14.30
15680;BMP180;15488;48.114;11.532;2023-04-09T04:06:55;95891.00;;;14.20
15680;BMP180;15488;48.114;11.532;2023-04-09T04:09:22;95905.00;;;14.20
15680;BMP180;15488;48.114;11.532;2023-04-09T04:11:50;95906.00;;;14.10
15680;BMP180;15488;48.114;11.532;2023-04-09T04:14:17;95909.00;;;14.10
15680;BMP180;15488;48.114;11.532;2023-04-09T04:16:45;95909.00;;;14.10
15680;BMP180;15488;48.114;11.532;2023-04-09T04:19:13;95910.00;;;14.20
15680;BMP180;15488;48.114;11.532;2023-04-09T04:21:41;95916.00;;;14.10
15680;BMP180;15488;48.114;11.532;2023-04-09T04:24:08;95911.00;;;14.00
15680;BMP180;15488;48.114;11.532;2023-04-09T04:26:36;95914.00;;;14.10
15680;BMP180;15488;48.114;11.532;2023-04-09T04:29:03;95916.00;;;14.00
15680;BMP180;15488;48.114;11.532;2023-04-09T04:31:31;95920.00;;;14.00
15680;BMP180;15488;48.114;11.532;2023-04-09T04:33:58;95918.00;;;13.90
15680;BMP180;15488;48.114;11.532;2023-04-09T04:36:27;95920.00;;;13.80
15680;BMP180;15488;48.114;11.532;2023-04-09T04:38:54;95920.00;;;13.80
15680;BMP180;15488;48.114;11.532;2023-04-09T04:41:22;95917.00;;;13.90
15680;BMP180;15488;48.114;11.532;2023-04-09T04:43:49;95912.00;;;13.90
15680;BMP180;15488;48.114;11.532;2023-04-09T04:46:17;95921.00;;;13.80
15680;BMP180;15488;48.114;11.532;2023-04-09T04:48:45;95915.00;;;13.80
15680;BMP180;15488;48.114;11.532;2023-04-09T04:51:12;95915.00;;;13.80
15680;BMP180;15488;48.114;11.532;2023-04-09T04:53:41;95911.00;;;13.70
15680;BMP180;15488;48.114;11.532;2023-04-09T04:56:12;95910.00;;;13.70
15680;BMP180;15488;48.114;11.532;2023-04-09T04:58:40;95900.00;;;13.70
15680;BMP180;15488;48.114;11.532;2023-04-09T05:01:08;95898.00;;;13.70
15680;BMP180;15488;48.114;11.532;2023-04-09T05:03:35;95895.00;;;13.70
15680;BMP180;15488;48.114;11.532;2023-04-09T05:06:03;95896.00;;;13.70
15680;BMP180;15488;48.114;11.532;2023-04-09T05:08:31;95896.00;;;13.70
15680;BMP180;15488;48.114;11.532;2023-04-09T05:10:59;95909.00;;;13.70
15680;BMP180;15488;48.114;11.532;2023-04-09T05:13:27;95916.00;;;13.70
15680;BMP180;15488;48.114;11.532;2023-04-09T05:15:54;95926.00;;;13.70
15680;BMP180;15488;48.114;11.532;2023-04-09T05:18:22;95928.00;;;13.70
15680;BMP180;15488;48.114;11.532;2023-04-09T05:20:49;95932.00;;;13.70
15680;BMP180;15488;48.114;11.532;2023-04-09T05:23:16;95933.00;;;13.70
15680;BMP180;15488;48.114;11.532;2023-04-09T05:25:44;95935.00;;;13.70
15680;BMP180;15488;48.114;11.532;2023-04-09T05:28:13;95935.00;;;13.70
15680;BMP180;15488;48.114;11.532;2023-04-09T05:30:44;95938.00;;;13.70
15680;BMP180;15488;48.114;11.532;2023-04-09T05:33:12;95944.00;;;13.70
15680;BMP180;15488;48.114;11.532;2023-04-09T05:35:39;95941.00;;;13.70
15680;BMP180;15488;48.114;11.532;2023-04-09T05:38:07;95943.00;;;13.70
15680;BMP180;15488;48.114;11.532;2023-04-09T05:40:34;95949.00;;;13.70
15680;BMP180;15488;48.114;11.532;2023-04-09T05:43:02;95945.00;;;13.20
15680;BMP180;15488;48.114;11.532;2023-04-09T05:45:30;95948.00;;;13.70
15680;BMP180;15488;48.114;11.532;2023-04-09T05:47:58;95947.00;;;13.70
15680;BMP180;15488;48.114;11.532;2023-04-09T05:50:25;95948.00;;;13.60
15680;BMP180;15488;48.114;11.532;2023-04-09T05:52:52;95942.00;;;13.70
15680;BMP180;15488;48.114;11.532;2023-04-09T05:55:20;95943.00;;;13.70
15680;BMP180;15488;48.114;11.532;2023-04-09T05:57:47;95941.00;;;13.70
15680;BMP180;15488;48.114;11.532;2023-04-09T06:00:15;95947.00;;;13.60
15680;BMP180;15488;48.114;11.532;2023-04-09T06:02:44;95932.00;;;13.60
15680;BMP180;15488;48.114;11.532;2023-04-09T06:05:12;95936.00;;;13.70
15680;BMP180;15488;48.114;11.532;2023-04-09T06:07:39;95938.00;;;13.70
15680;BMP180;15488;48.114;11.532;2023-04-09T06:10:07;95935.00;;;13.70
15680;BMP180;15488;48.114;11.532;2023-04-09T06:12:37;95935.00;;;13.70
15680;BMP180;15488;48.114;11.532;2023-04-09T06:15:05;95930.00;;;13.70
15680;BMP180;15488;48.114;11.532;2023-04-09T06:17:33;95929.00;;;13.70
15680;BMP180;15488;48.114;11.532;2023-04-09T06:20:02;95931.00;;;13.70
15680;BMP180;15488;48.114;11.532;2023-04-09T06:22:30;95938.00;;;13.80
15680;BMP180;15488;48.114;11.532;2023-04-09T06:24:57;95949.00;;;13.80
15680;BMP180;15488;48.114;11.532;2023-04-09T06:27:24;95951.00;;;13.80
15680;BMP180;15488;48.114;11.532;2023-04-09T06:29:52;95954.00;;;13.80
15680;BMP180;15488;48.114;11.532;2023-04-09T06:32:19;95957.00;;;13.80
15680;BMP180;15488;48.114;11.532;2023-04-09T06:34:47;95956.00;;;13.80
15680;BMP180;15488;48.114;11.532;2023-04-09T06:37:15;95956.00;;;13.80
15680;BMP180;15488;48.114;11.532;2023-04-09T06:39:43;95956.00;;;13.90
15680;BMP180;15488;48.114;11.532;2023-04-09T06:42:10;95952.00;;;13.90
15680;BMP180;15488;48.114;11.532;2023-04-09T06:44:38;95961.00;;;14.00
15680;BMP180;15488;48.114;11.532;2023-04-09T06:47:05;95962.00;;;14.00
15680;BMP180;15488;48.114;11.532;2023-04-09T06:49:33;95953.00;;;14.10
15680;BMP180;15488;48.114;11.532;2023-04-09T06:52:02;95955.00;;;14.10
15680;BMP180;15488;48.114;11.532;2023-04-09T06:54:30;95955.00;;;14.10
15680;BMP180;15488;48.114;11.532;2023-04-09T06:56:58;95958.00;;;14.20
15680;BMP180;15488;48.114;11.532;2023-04-09T06:59:25;95962.00;;;14.20
15680;BMP180;15488;48.114;11.532;2023-04-09T07:01:53;95961.00;;;14.20
15680;BMP180;15488;48.114;11.532;2023-04-09T07:04:20;95961.00;;;14.30
15680;BMP180;15488;48.114;11.532;2023-04-09T07:06:48;95960.00;;;14.40
15680;BMP180;15488;48.114;11.532;2023-04-09T07:09:16;95975.00;;;14.40
15680;BMP180;15488;48.114;11.532;2023-04-09T07:11:45;95975.00;;;14.40
15680;BMP180;15488;48.114;11.532;2023-04-09T07:14:13;95972.00;;;14.50
15680;BMP180;15488;48.114;11.532;2023-04-09T07:16:40;95974.00;;;14.50
15680;BMP180;15488;48.114;11.532;2023-04-09T07:19:08;95964.00;;;14.50
15680;BMP180;15488;48.114;11.532;2023-04-09T07:21:35;95967.00;;;14.50
15680;BMP180;15488;48.114;11.532;2023-04-09T07:24:03;95967.00;;;14.60
15680;BMP180;15488;48.114;11.532;2023-04-09T07:26:30;95972.00;;;14.70
15680;BMP180;15488;48.114;11.532;2023-04-09T07:28:59;95965.00;;;14.80
15680;BMP180;15488;48.114;11.532;2023-04-09T07:31:28;95976.00;;;14.80
15680;BMP180;15488;48.114;11.532;2023-04-09T07:33:56;95972.00;;;14.90
15680;BMP180;15488;48.114;11.532;2023-04-09T07:36:24;95972.00;;;14.90
15680;BMP180;15488;48.114;11.532;2023-04-09T07:38:51;95966.00;;;15.00
15680;BMP180;15488;48.114;11.532;2023-04-09T07:41:19;95974.00;;;15.00
15680;BMP180;15488;48.114;11.532;2023-04-09T07:43:46;95970.00;;;15.10
15680;BMP180;15488;48.114;11.532;2023-04-09T07:46:19;95976.00;;;15.10
15680;BMP180;15488;48.114;11.532;2023-04-09T07:48:47;95966.00;;;15.10
15680;BMP180;15488;48.114;11.532;2023-04-09T07:51:15;95966.00;;;15.20
15680;BMP180;15488;48.114;11.532;2023-04-09T07:53:42;95972.00;;;15.30
15680;BMP180;15488;48.114;11.532;2023-04-09T07:56:10;95970.00;;;15.30
15680;BMP180;15488;48.114;11.532;2023-04-09T07:58:37;95967.00;;;15.30
15680;BMP180;15488;48.114;11.532;2023-04-09T08:01:05;95970.00;;;15.40
15680;BMP180;15488;48.114;11.532;2023-04-09T08:03:34;95971.00;;;15.30
15680;BMP180;15488;48.114;11.532;2023-04-09T08:06:02;95965.00;;;15.40
15680;BMP180;15488;48.114;11.532;2023-04-09T08:08:29;95966.00;;;15.50
15680;BMP180;15488;48.114;11.532;2023-04-09T08:10:57;95966.00;;;15.50
15680;BMP180;15488;48.114;11.532;2023-04-09T08:13:24;95977.00;;;15.50
15680;BMP180;15488;48.114;11.532;2023-04-09T08:15:52;95970.00;;;15.60
15680;BMP180;15488;48.114;11.532;2023-04-09T08:18:19;95961.00;;;15.70
15680;BMP180;15488;48.114;11.532;2023-04-09T08:20:55;95982.00;;;15.70
15680;BMP180;15488;48.114;11.532;2023-04-09T08:23:23;95974.00;;;15.70
15680;BMP180;15488;48.114;11.532;2023-04-09T08:25:51;95980.00;;;15.80
15680;BMP180;15488;48.114;11.532;2023-04-09T08:28:18;95983.00;;;15.80
15680;BMP180;15488;48.114;11.532;2023-04-09T08:30:45;95984.00;;;15.90
15680;BMP180;15488;48.114;11.532;2023-04-09T08:33:13;95989.00;;;15.90
15680;BMP180;15488;48.114;11.532;2023-04-09T08:35:41;95989.00;;;16.00
15680;BMP180;15488;48.114;11.532;2023-04-09T08:38:10;95984.00;;;16.00
15680;BMP180;15488;48.114;11.532;2023-04-09T08:40:38;95984.00;;;16.00
15680;BMP180;15488;48.114;11.532;2023-04-09T08:43:06;95984.00;;;16.10
15680;BMP180;15488;48.114;11.532;2023-04-09T08:45:34;95990.00;;;16.10
15680;BMP180;15488;48.114;11.532;2023-04-09T08:48:02;95987.00;;;16.20
15680;BMP180;15488;48.114;11.532;2023-04-09T08:50:31;95988.00;;;16.30
15680;BMP180;15488;48.114;11.532;2023-04-09T08:53:00;95981.00;;;16.30
15680;BMP180;15488;48.114;11.532;2023-04-09T08:55:30;95979.00;;;16.40
15680;BMP180;15488;48.114;11.532;2023-04-09T08:57:59;95976.00;;;16.40
15680;BMP180;15488;48.114;11.532;2023-04-09T09:00:27;95983.00;;;16.50
15680;BMP180;15488;48.114;11.532;2023-04-09T09:03:01;95989.00;;;16.50
15680;BMP180;15488;48.114;11.532;2023-04-09T09:05:35;95987.00;;;16.60
15680;BMP180;15488;48.114;11.532;2023-04-09T09:08:03;95988.00;;;16.60
15680;BMP180;15488;48.114;11.532;2023-04-09T09:10:40;95988.00;;;16.60
15680;BMP180;15488;48.114;11.532;2023-04-09T09:13:18;95989.00;;;16.70
15680;BMP180;15488;48.114;11.532;2023-04-09T09:15:48;95989.00;;;16.70
15680;BMP180;15488;48.114;11.532;2023-04-09T09:18:20;95992.00;;;16.80
15680;BMP180;15488;48.114;11.532;2023-04-09T09:20:47;95988.00;;;16.80
15680;BMP180;15488;48.114;11.532;2023-04-09T09:23:15;95986.00;;;16.90
15680;BMP180;15488;48.114;11.532;2023-04-09T09:25:44;95991.00;;;17.00
15680;BMP180;15488;48.114;11.532;2023-04-09T09:28:12;95992.00;;;17.00
15680;BMP180;15488;48.114;11.532;2023-04-09T09:30:40;95994.00;;;17.10
15680;BMP180;15488;48.114;11.532;2023-04-09T09:33:08;95997.00;;;17.20
15680;BMP180;15488;48.114;11.532;2023-04-09T09:35:47;95992.00;;;17.20
15680;BMP180;15488;48.114;11.532;2023-04-09T09:38:15;95996.00;;;17.30
15680;BMP180;15488;48.114;11.532;2023-04-09T09:40:45;95991.00;;;17.30
15680;BMP180;15488;48.114;11.532;2023-04-09T09:43:12;95993.00;;;17.50
15680;BMP180;15488;48.114;11.532;2023-04-09T09:45:41;95991.00;;;17.50
15680;BMP180;15488;48.114;11.532;2023-04-09T09:48:10;95987.00;;;17.60
15680;BMP180;15488;48.114;11.532;2023-04-09T09:50:39;95996.00;;;17.70
15680;BMP180;15488;48.114;11.532;2023-04-09T09:53:08;95996.00;;;17.70
15680;BMP180;15488;48.114;11.532;2023-04-09T09:55:39;95988.00;;;17.80
15680;BMP180;15488;48.114;11.532;2023-04-09T09:58:15;95988.00;;;17.90
15680;BMP180;15488;48.114;11.532;2023-04-09T10:00:45;95995.00;;;18.00
15680;BMP180;15488;48.114;11.532;2023-04-09T10:03:16;95999.00;;;18.10
15680;BMP180;15488;48.114;11.532;2023-04-09T10:05:48;96000.00;;;18.10
15680;BMP180;15488;48.114;11.532;2023-04-09T10:08:17;95998.00;;;18.20
15680;BMP180;15488;48.114;11.532;2023-04-09T10:10:46;95996.00;;;18.30
15680;BMP180;15488;48.114;11.532;2023-04-09T10:13:18;95999.00;;;18.40
15680;BMP180;15488;48.114;11.532;2023-04-09T10:15:48;95996.00;;;18.50
15680;BMP180;15488;48.114;11.532;2023-04-09T10:18:17;95991.00;;;18.60
15680;BMP180;15488;48.114;11.532;2023-04-09T10:20:49;95990.00;;;18.60
15680;BMP180;15488;48.114;11.532;2023-04-09T10:23:26;95988.00;;;18.70
15680;BMP180;15488;48.114;11.532;2023-04-09T10:25:57;95995.00;;;18.80
15680;BMP180;15488;48.114;11.532;2023-04-09T10:28:26;95991.00;;;18.90
15680;BMP180;15488;48.114;11.532;2023-04-09T10:30:53;95992.00;;;19.00
15680;BMP180;15488;48.114;11.532;2023-04-09T10:33:25;95995.00;;;19.00
15680;BMP180;15488;48.114;11.532;2023-04-09T10:35:53;95995.00;;;19.10
15680;BMP180;15488;48.114;11.532;2023-04-09T10:38:37;95994.00;;;19.20
15680;BMP180;15488;48.114;11.532;2023-04-09T10:41:14;95996.00;;;19.30
15680;BMP180;15488;48.114;11.532;2023-04-09T10:43:47;95987.00;;;19.30
15680;BMP180;15488;48.114;11.532;2023-04-09T10:46:28;95987.00;;;19.40
15680;BMP180;15488;48.114;11.532;2023-04-09T10:49:17;95984.00;;;19.50
15680;BMP180;15488;48.114;11.532;2023-04-09T10:51:52;95983.00;;;19.60
15680;BMP180;15488;48.114;11.532;2023-04-09T10:54:39;95983.00;;;19.60
15680;BMP180;15488;48.114;11.532;2023-04-09T10:57:16;95990.00;;;19.70
15680;BMP180;15488;48.114;11.532;2023-04-09T10:59:47;95989.00;;;19.80
15680;BMP180;15488;48.114;11.532;2023-04-09T11:05:25;95990.00;;;19.90
15680;BMP180;15488;48.114;11.532;2023-04-09T11:08:04;95984.00;;;20.00
15680;BMP180;15488;48.114;11.532;2023-04-09T11:10:32;95978.00;;;20.10
15680;BMP180;15488;48.114;11.532;2023-04-09T11:13:00;95984.00;;;20.10
15680;BMP180;15488;48.114;11.532;2023-04-09T11:15:30;95980.00;;;20.20
15680;BMP180;15488;48.114;11.532;2023-04-09T11:17:57;95984.00;;;20.20
15680;BMP180;15488;48.114;11.532;2023-04-09T11:20:25;95981.00;;;20.30
15680;BMP180;15488;48.114;11.532;2023-04-09T11:22:54;95979.00;;;20.30
15680;BMP180;15488;48.114;11.532;2023-04-09T11:25:23;95977.00;;;20.40
15680;BMP180;15488;48.114;11.532;2023-04-09T11:27:50;95974.00;;;20.40
15680;BMP180;15488;48.114;11.532;2023-04-09T11:30:18;95975.00;;;20.50
15680;BMP180;15488;48.114;11.532;2023-04-09T11:32:48;95978.00;;;20.50
15680;BMP180;15488;48.114;11.532;2023-04-09T11:35:17;95979.00;;;20.60
15680;BMP180;15488;48.114;11.532;2023-04-09T11:37:45;95978.00;;;20.60
15680;BMP180;15488;48.114;11.532;2023-04-09T11:40:16;95976.00;;;20.60
15680;BMP180;15488;48.114;11.532;2023-04-09T11:42:45;95981.00;;;20.70
15680;BMP180;15488;48.114;11.532;2023-04-09T11:45:15;95990.00;;;20.70
15680;BMP180;15488;48.114;11.532;2023-04-09T11:47:43;95989.00;;;20.70
15680;BMP180;15488;48.114;11.532;2023-04-09T11:50:14;95991.00;;;20.70
15680;BMP180;15488;48.114;11.532;2023-04-09T11:52:42;95983.00;;;20.70
15680;BMP180;15488;48.114;11.532;2023-04-09T11:55:11;95994.00;;;20.70
15680;BMP180;15488;48.114;11.532;2023-04-09T11:57:40;95997.00;;;20.60
15680;BMP180;15488;48.114;11.532;2023-04-09T12:00:10;95995.00;;;20.60
15680;BMP180;15488;48.114;11.532;2023-04-09T12:02:40;96000.00;;;20.60
15680;BMP180;15488;48.114;11.532;2023-04-09T12:05:09;95994.00;;;20.60
15680;BMP180;15488;48.114;11.532;2023-04-09T12:07:40;95996.00;;;20.50
15680;BMP180;15488;48.114;11.532;2023-04-09T12:10:11;96002.00;;;20.50
15680;BMP180;15488;48.114;11.532;2023-04-09T12:12:43;96002.00;;;20.40
15680;BMP180;15488;48.114;11.532;2023-04-09T12:15:21;96005.00;;;20.40
15680;BMP180;15488;48.114;11.532;2023-04-09T12:17:50;96004.00;;;20.40
15680;BMP180;15488;48.114;11.532;2023-04-09T12:20:32;96007.00;;;20.30
15680;BMP180;15488;48.114;11.532;2023-04-09T12:23:03;96002.00;;;20.20
15680;BMP180;15488;48.114;11.532;2023-04-09T12:25:32;95994.00;;;20.20
15680;BMP180;15488;48.114;11.532;2023-04-09T12:28:00;95999.00;;;20.20
15680;BMP180;15488;48.114;11.532;2023-04-09T12:30:28;95997.00;;;20.10
15680;BMP180;15488;48.114;11.532;2023-04-09T12:32:56;95993.00;;;20.10
15680;BMP180;15488;48.114;11.532;2023-04-09T12:35:25;96001.00;;;20.20
15680;BMP180;15488;48.114;11.532;2023-04-09T12:37:53;95992.00;;;20.20
15680;BMP180;15488;48.114;11.532;2023-04-09T12:40:22;95991.00;;;20.30
15680;BMP180;15488;48.114;11.532;2023-04-09T12:42:50;95997.00;;;20.30
15680;BMP180;15488;48.114;11.532;2023-04-09T12:45:18;95998.00;;;20.40
15680;BMP180;15488;48.114;11.532;2023-04-09T12:47:46;95991.00;;;20.40
15680;BMP180;15488;48.114;11.532;2023-04-09T12:50:14;95984.00;;;20.50
15680;BMP180;15488;48.114;11.532;2023-04-09T12:52:42;95989.00;;;20.60
15680;BMP180;15488;48.114;11.532;2023-04-09T12:55:10;95990.00;;;20.80
15680;BMP180;15488;48.114;11.532;2023-04-09T12:57:42;95988.00;;;21.10
15680;BMP180;15488;48.114;11.532;2023-04-09T13:00:11;95986.00;;;21.30
15680;BMP180;15488;48.114;11.532;2023-04-09T13:02:38;95983.00;;;21.60
15680;BMP180;15488;48.114;11.532;2023-04-09T13:05:06;95991.00;;;21.50
15680;BMP180;15488;48.114;11.532;2023-04-09T13:07:34;95982.00;;;22.00
15680;BMP180;15488;48.114;11.532;2023-04-09T13:10:01;95986.00;;;22.30
15680;BMP180;15488;48.114;11.532;2023-04-09T13:12:29;95976.00;;;22.80
15680;BMP180;15488;48.114;11.532;2023-04-09T13:14:58;95980.00;;;23.20
15680;BMP180;15488;48.114;11.532;2023-04-09T13:17:26;95976.00;;;23.60
15680;BMP180;15488;48.114;11.532;2023-04-09T13:19:54;95976.00;;;23.90
15680;BMP180;15488;48.114;11.532;2023-04-09T13:22:21;95978.00;;;24.00
15680;BMP180;15488;48.114;11.532;2023-04-09T13:24:49;95988.00;;;24.10
15680;BMP180;15488;48.114;11.532;2023-04-09T13:27:16;95981.00;;;24.10
15680;BMP180;15488;48.114;11.532;2023-04-09T13:29:44;95982.00;;;24.10
15680;BMP180;15488;48.114;11.532;2023-04-09T13:32:13;95984.00;;;24.00
15680;BMP180;15488;48.114;11.532;2023-04-09T13:34:40;95983.00;;;23.90
15680;BMP180;15488;48.114;11.532;2023-04-09T13:37:08;95980.00;;;23.90
15680;BMP180;15488;48.114;11.532;2023-04-09T13:39:35;95978.00;;;23.80
15680;BMP180;15488;48.114;11.532;2023-04-09T13:42:03;95966.00;;;23.60
15680;BMP180;15488;48.114;11.532;2023-04-09T13:44:30;95973.00;;;23.50
15680;BMP180;15488;48.114;11.532;2023-04-09T13:46:57;95979.00;;;23.40
15680;BMP180;15488;48.114;11.532;2023-04-09T13:49:27;95974.00;;;23.30
15680;BMP180;15488;48.114;11.532;2023-04-09T13:51:55;95974.00;;;23.20
15680;BMP180;15488;48.114;11.532;2023-04-09T13:54:23;95975.00;;;23.10
15680;BMP180;15488;48.114;11.532;2023-04-09T13:56:51;95965.00;;;23.00
15680;BMP180;15488;48.114;11.532;2023-04-09T13:59:18;95963.00;;;22.90
15680;BMP180;15488;48.114;11.532;2023-04-09T14:01:46;95960.00;;;22.80
15680;BMP180;15488;48.114;11.532;2023-04-09T14:04:13;95953.00;;;23.00
15680;BMP180;15488;48.114;11.532;2023-04-09T14:06:42;95950.00;;;23.30
15680;BMP180;15488;48.114;11.532;2023-04-09T14:09:10;95956.00;;;23.80